<?xml version="1.0" encoding="UTF-8" standalone="no" ?>
<gpx xmlns="http://www.topografix.com/GPX/1/1" xmlns:xsi="http://www.w3.org/2001/XMLSchema-instance" xsi:schemaLocation="http://www.topografix.com/GPX/1/1 http://www.topografix.com/GPX/1/1/gpx.xsd" version="1.1" creator="VisuGPX - https://www.visugpx.com">
  <metadata>
    <name>a liaison le Sonnac-départ la Cresse</name>
    <desc><![CDATA[

]]></desc>
  </metadata>
  <trk>
    <name><![CDATA[a liaison le Sonnac-départ la Cresse]]></name>
    <extensions>
      <line xmlns="http://www.topografix.com/GPX/gpx_style/0/2">
        <color>66ff00</color>
        <width>4</width>
          <extensions>
            <sens>1</sens>
          </extensions>
      </line>
    </extensions>
    <trkseg>
      <trkpt lat="44.1742" lon="3.15711">
        <ele>747.19995117188</ele>
        <time>2013-06-25T13:11:21Z</time>
      </trkpt>
      <trkpt lat="44.1741" lon="3.15709">
        <ele>747.19995117188</ele>
        <time>2013-06-25T13:11:24Z</time>
      </trkpt>
      <trkpt lat="44.17407" lon="3.15708">
        <ele>747.80004882812</ele>
        <time>2013-06-25T13:11:25Z</time>
      </trkpt>
      <trkpt lat="44.17403" lon="3.15707">
        <ele>750.40002441406</ele>
        <time>2013-06-25T13:11:26Z</time>
      </trkpt>
      <trkpt lat="44.17398" lon="3.15706">
        <ele>753</ele>
        <time>2013-06-25T13:11:27Z</time>
      </trkpt>
      <trkpt lat="44.17394" lon="3.15705">
        <ele>755.59997558594</ele>
        <time>2013-06-25T13:11:28Z</time>
      </trkpt>
      <trkpt lat="44.17389" lon="3.15704">
        <ele>753.19995117188</ele>
        <time>2013-06-25T13:11:29Z</time>
      </trkpt>
      <trkpt lat="44.17384" lon="3.15704">
        <ele>750.59997558594</ele>
        <time>2013-06-25T13:11:30Z</time>
      </trkpt>
      <trkpt lat="44.17378" lon="3.15703">
        <ele>748.19995117188</ele>
        <time>2013-06-25T13:11:31Z</time>
      </trkpt>
      <trkpt lat="44.17373" lon="3.15702">
        <ele>745.59997558594</ele>
        <time>2013-06-25T13:11:32Z</time>
      </trkpt>
      <trkpt lat="44.17368" lon="3.15702">
        <ele>743</ele>
        <time>2013-06-25T13:11:33Z</time>
      </trkpt>
      <trkpt lat="44.17347" lon="3.15701">
        <ele>743</ele>
        <time>2013-06-25T13:11:37Z</time>
      </trkpt>
      <trkpt lat="44.17315" lon="3.15703">
        <ele>743.40002441406</ele>
        <time>2013-06-25T13:11:43Z</time>
      </trkpt>
      <trkpt lat="44.1731" lon="3.15703">
        <ele>743.80004882812</ele>
        <time>2013-06-25T13:11:44Z</time>
      </trkpt>
      <trkpt lat="44.17304" lon="3.15703">
        <ele>744.19995117188</ele>
        <time>2013-06-25T13:11:45Z</time>
      </trkpt>
      <trkpt lat="44.17299" lon="3.15703">
        <ele>744.59997558594</ele>
        <time>2013-06-25T13:11:46Z</time>
      </trkpt>
      <trkpt lat="44.17294" lon="3.15702">
        <ele>745.19995117188</ele>
        <time>2013-06-25T13:11:47Z</time>
      </trkpt>
      <trkpt lat="44.17283" lon="3.15699">
        <ele>745.19995117188</ele>
        <time>2013-06-25T13:11:49Z</time>
      </trkpt>
      <trkpt lat="44.17273" lon="3.15693">
        <ele>745.19995117188</ele>
        <time>2013-06-25T13:11:51Z</time>
      </trkpt>
      <trkpt lat="44.17263" lon="3.15701">
        <ele>745.19995117188</ele>
        <time>2013-06-25T13:11:53Z</time>
      </trkpt>
      <trkpt lat="44.17256" lon="3.15715">
        <ele>744.59997558594</ele>
        <time>2013-06-25T13:11:55Z</time>
      </trkpt>
      <trkpt lat="44.17253" lon="3.15723">
        <ele>744</ele>
        <time>2013-06-25T13:11:56Z</time>
      </trkpt>
      <trkpt lat="44.1725" lon="3.15731">
        <ele>743.59997558594</ele>
        <time>2013-06-25T13:11:57Z</time>
      </trkpt>
      <trkpt lat="44.17247" lon="3.1574">
        <ele>743</ele>
        <time>2013-06-25T13:11:58Z</time>
      </trkpt>
      <trkpt lat="44.17244" lon="3.15748">
        <ele>742.59997558594</ele>
        <time>2013-06-25T13:11:59Z</time>
      </trkpt>
      <trkpt lat="44.17232" lon="3.15771">
        <ele>742.59997558594</ele>
        <time>2013-06-25T13:12:02Z</time>
      </trkpt>
      <trkpt lat="44.17222" lon="3.15788">
        <ele>741.59997558594</ele>
        <time>2013-06-25T13:12:04Z</time>
      </trkpt>
      <trkpt lat="44.17218" lon="3.15796">
        <ele>741.19995117188</ele>
        <time>2013-06-25T13:12:05Z</time>
      </trkpt>
      <trkpt lat="44.17213" lon="3.15804">
        <ele>740.80004882812</ele>
        <time>2013-06-25T13:12:06Z</time>
      </trkpt>
      <trkpt lat="44.17207" lon="3.15812">
        <ele>740.40002441406</ele>
        <time>2013-06-25T13:12:07Z</time>
      </trkpt>
      <trkpt lat="44.17201" lon="3.1582">
        <ele>739.80004882812</ele>
        <time>2013-06-25T13:12:08Z</time>
      </trkpt>
      <trkpt lat="44.17194" lon="3.15827">
        <ele>739.40002441406</ele>
        <time>2013-06-25T13:12:09Z</time>
      </trkpt>
      <trkpt lat="44.17188" lon="3.15835">
        <ele>738.80004882812</ele>
        <time>2013-06-25T13:12:10Z</time>
      </trkpt>
      <trkpt lat="44.1718" lon="3.15842">
        <ele>738.19995117188</ele>
        <time>2013-06-25T13:12:11Z</time>
      </trkpt>
      <trkpt lat="44.17173" lon="3.15849">
        <ele>737.40002441406</ele>
        <time>2013-06-25T13:12:12Z</time>
      </trkpt>
      <trkpt lat="44.17165" lon="3.15855">
        <ele>736.80004882812</ele>
        <time>2013-06-25T13:12:13Z</time>
      </trkpt>
      <trkpt lat="44.17156" lon="3.1586">
        <ele>736.19995117188</ele>
        <time>2013-06-25T13:12:14Z</time>
      </trkpt>
      <trkpt lat="44.17148" lon="3.15863">
        <ele>735.40002441406</ele>
        <time>2013-06-25T13:12:15Z</time>
      </trkpt>
      <trkpt lat="44.17139" lon="3.15864">
        <ele>734.80004882812</ele>
        <time>2013-06-25T13:12:16Z</time>
      </trkpt>
      <trkpt lat="44.1713" lon="3.15864">
        <ele>734</ele>
        <time>2013-06-25T13:12:17Z</time>
      </trkpt>
      <trkpt lat="44.17122" lon="3.15862">
        <ele>733.40002441406</ele>
        <time>2013-06-25T13:12:18Z</time>
      </trkpt>
      <trkpt lat="44.17113" lon="3.15859">
        <ele>733</ele>
        <time>2013-06-25T13:12:19Z</time>
      </trkpt>
      <trkpt lat="44.17104" lon="3.15856">
        <ele>732.40002441406</ele>
        <time>2013-06-25T13:12:20Z</time>
      </trkpt>
      <trkpt lat="44.17096" lon="3.15854">
        <ele>731.80004882812</ele>
        <time>2013-06-25T13:12:21Z</time>
      </trkpt>
      <trkpt lat="44.17087" lon="3.15853">
        <ele>731.19995117188</ele>
        <time>2013-06-25T13:12:22Z</time>
      </trkpt>
      <trkpt lat="44.1707" lon="3.15856">
        <ele>731.19995117188</ele>
        <time>2013-06-25T13:12:24Z</time>
      </trkpt>
      <trkpt lat="44.17054" lon="3.15857">
        <ele>730.80004882812</ele>
        <time>2013-06-25T13:12:26Z</time>
      </trkpt>
      <trkpt lat="44.17046" lon="3.1586">
        <ele>730.19995117188</ele>
        <time>2013-06-25T13:12:27Z</time>
      </trkpt>
      <trkpt lat="44.17037" lon="3.15861">
        <ele>729.40002441406</ele>
        <time>2013-06-25T13:12:28Z</time>
      </trkpt>
      <trkpt lat="44.1703" lon="3.15863">
        <ele>729</ele>
        <time>2013-06-25T13:12:29Z</time>
      </trkpt>
      <trkpt lat="44.17022" lon="3.15868">
        <ele>728.40002441406</ele>
        <time>2013-06-25T13:12:30Z</time>
      </trkpt>
      <trkpt lat="44.17013" lon="3.1587">
        <ele>728</ele>
        <time>2013-06-25T13:12:31Z</time>
      </trkpt>
      <trkpt lat="44.17006" lon="3.15874">
        <ele>727.59997558594</ele>
        <time>2013-06-25T13:12:32Z</time>
      </trkpt>
      <trkpt lat="44.16998" lon="3.15877">
        <ele>727</ele>
        <time>2013-06-25T13:12:33Z</time>
      </trkpt>
      <trkpt lat="44.16989" lon="3.1588">
        <ele>726.59997558594</ele>
        <time>2013-06-25T13:12:34Z</time>
      </trkpt>
      <trkpt lat="44.16966" lon="3.15887">
        <ele>726.59997558594</ele>
        <time>2013-06-25T13:12:37Z</time>
      </trkpt>
      <trkpt lat="44.16935" lon="3.15898">
        <ele>726</ele>
        <time>2013-06-25T13:12:41Z</time>
      </trkpt>
      <trkpt lat="44.16927" lon="3.15899">
        <ele>725.59997558594</ele>
        <time>2013-06-25T13:12:42Z</time>
      </trkpt>
      <trkpt lat="44.16919" lon="3.15901">
        <ele>725</ele>
        <time>2013-06-25T13:12:43Z</time>
      </trkpt>
      <trkpt lat="44.16911" lon="3.15905">
        <ele>724.59997558594</ele>
        <time>2013-06-25T13:12:44Z</time>
      </trkpt>
      <trkpt lat="44.16905" lon="3.1591">
        <ele>724.19995117188</ele>
        <time>2013-06-25T13:12:45Z</time>
      </trkpt>
      <trkpt lat="44.16891" lon="3.15921">
        <ele>723.59997558594</ele>
        <time>2013-06-25T13:12:47Z</time>
      </trkpt>
      <trkpt lat="44.16883" lon="3.15925">
        <ele>723</ele>
        <time>2013-06-25T13:12:48Z</time>
      </trkpt>
      <trkpt lat="44.16875" lon="3.15929">
        <ele>722.59997558594</ele>
        <time>2013-06-25T13:12:49Z</time>
      </trkpt>
      <trkpt lat="44.16867" lon="3.15931">
        <ele>722</ele>
        <time>2013-06-25T13:12:50Z</time>
      </trkpt>
      <trkpt lat="44.16859" lon="3.15932">
        <ele>721.59997558594</ele>
        <time>2013-06-25T13:12:51Z</time>
      </trkpt>
      <trkpt lat="44.16826" lon="3.15934">
        <ele>721</ele>
        <time>2013-06-25T13:12:55Z</time>
      </trkpt>
      <trkpt lat="44.16818" lon="3.15933">
        <ele>720.59997558594</ele>
        <time>2013-06-25T13:12:56Z</time>
      </trkpt>
      <trkpt lat="44.1681" lon="3.1593">
        <ele>720.19995117188</ele>
        <time>2013-06-25T13:12:57Z</time>
      </trkpt>
      <trkpt lat="44.16802" lon="3.15928">
        <ele>719.59997558594</ele>
        <time>2013-06-25T13:12:58Z</time>
      </trkpt>
      <trkpt lat="44.16794" lon="3.15927">
        <ele>719.19995117188</ele>
        <time>2013-06-25T13:12:59Z</time>
      </trkpt>
      <trkpt lat="44.16786" lon="3.15926">
        <ele>719.19995117188</ele>
        <time>2013-06-25T13:13:00Z</time>
      </trkpt>
      <trkpt lat="44.1677" lon="3.15921">
        <ele>718.80004882812</ele>
        <time>2013-06-25T13:13:02Z</time>
      </trkpt>
      <trkpt lat="44.16762" lon="3.15918">
        <ele>718.40002441406</ele>
        <time>2013-06-25T13:13:03Z</time>
      </trkpt>
      <trkpt lat="44.16754" lon="3.15915">
        <ele>717.80004882812</ele>
        <time>2013-06-25T13:13:04Z</time>
      </trkpt>
      <trkpt lat="44.16747" lon="3.15912">
        <ele>717.40002441406</ele>
        <time>2013-06-25T13:13:05Z</time>
      </trkpt>
      <trkpt lat="44.16739" lon="3.1591">
        <ele>717</ele>
        <time>2013-06-25T13:13:06Z</time>
      </trkpt>
      <trkpt lat="44.16717" lon="3.15905">
        <ele>717</ele>
        <time>2013-06-25T13:13:09Z</time>
      </trkpt>
      <trkpt lat="44.16692" lon="3.15893">
        <ele>717</ele>
        <time>2013-06-25T13:13:14Z</time>
      </trkpt>
      <trkpt lat="44.16688" lon="3.15891">
        <ele>717.40002441406</ele>
        <time>2013-06-25T13:13:15Z</time>
      </trkpt>
      <trkpt lat="44.16685" lon="3.1589">
        <ele>717.80004882812</ele>
        <time>2013-06-25T13:13:16Z</time>
      </trkpt>
      <trkpt lat="44.16681" lon="3.15889">
        <ele>718.59997558594</ele>
        <time>2013-06-25T13:13:17Z</time>
      </trkpt>
      <trkpt lat="44.16677" lon="3.15891">
        <ele>719.19995117188</ele>
        <time>2013-06-25T13:13:18Z</time>
      </trkpt>
      <trkpt lat="44.16672" lon="3.15894">
        <ele>719.19995117188</ele>
        <time>2013-06-25T13:13:19Z</time>
      </trkpt>
      <trkpt lat="44.16658" lon="3.15915">
        <ele>719.19995117188</ele>
        <time>2013-06-25T13:13:23Z</time>
      </trkpt>
      <trkpt lat="44.16654" lon="3.15939">
        <ele>719.19995117188</ele>
        <time>2013-06-25T13:13:27Z</time>
      </trkpt>
      <trkpt lat="44.16653" lon="3.15948">
        <ele>720</ele>
        <time>2013-06-25T13:13:29Z</time>
      </trkpt>
      <trkpt lat="44.16651" lon="3.15957">
        <ele>720.80004882812</ele>
        <time>2013-06-25T13:13:31Z</time>
      </trkpt>
      <trkpt lat="44.16649" lon="3.15965">
        <ele>721.19995117188</ele>
        <time>2013-06-25T13:13:33Z</time>
      </trkpt>
      <trkpt lat="44.16639" lon="3.15982">
        <ele>721.19995117188</ele>
        <time>2013-06-25T13:13:38Z</time>
      </trkpt>
      <trkpt lat="44.16632" lon="3.15992">
        <ele>721.59997558594</ele>
        <time>2013-06-25T13:13:41Z</time>
      </trkpt>
      <trkpt lat="44.1663" lon="3.16">
        <ele>722.80004882812</ele>
        <time>2013-06-25T13:13:43Z</time>
      </trkpt>
      <trkpt lat="44.16628" lon="3.16014">
        <ele>723.59997558594</ele>
        <time>2013-06-25T13:13:47Z</time>
      </trkpt>
      <trkpt lat="44.1663" lon="3.16021">
        <ele>724.59997558594</ele>
        <time>2013-06-25T13:13:49Z</time>
      </trkpt>
      <trkpt lat="44.16633" lon="3.16028">
        <ele>725.40002441406</ele>
        <time>2013-06-25T13:13:51Z</time>
      </trkpt>
      <trkpt lat="44.16636" lon="3.16046">
        <ele>725.40002441406</ele>
        <time>2013-06-25T13:13:55Z</time>
      </trkpt>
      <trkpt lat="44.16635" lon="3.16054">
        <ele>726.19995117188</ele>
        <time>2013-06-25T13:13:57Z</time>
      </trkpt>
      <trkpt lat="44.16631" lon="3.16059">
        <ele>727</ele>
        <time>2013-06-25T13:13:59Z</time>
      </trkpt>
      <trkpt lat="44.16622" lon="3.16066">
        <ele>727.40002441406</ele>
        <time>2013-06-25T13:14:03Z</time>
      </trkpt>
      <trkpt lat="44.16612" lon="3.16083">
        <ele>727.40002441406</ele>
        <time>2013-06-25T13:14:09Z</time>
      </trkpt>
      <trkpt lat="44.16609" lon="3.16089">
        <ele>728.19995117188</ele>
        <time>2013-06-25T13:14:11Z</time>
      </trkpt>
      <trkpt lat="44.16606" lon="3.16096">
        <ele>729</ele>
        <time>2013-06-25T13:14:13Z</time>
      </trkpt>
      <trkpt lat="44.166" lon="3.16104">
        <ele>729.40002441406</ele>
        <time>2013-06-25T13:14:16Z</time>
      </trkpt>
      <trkpt lat="44.16592" lon="3.16111">
        <ele>729.80004882812</ele>
        <time>2013-06-25T13:14:19Z</time>
      </trkpt>
      <trkpt lat="44.16586" lon="3.16112">
        <ele>730.59997558594</ele>
        <time>2013-06-25T13:14:21Z</time>
      </trkpt>
      <trkpt lat="44.1658" lon="3.16111">
        <ele>731.59997558594</ele>
        <time>2013-06-25T13:14:23Z</time>
      </trkpt>
      <trkpt lat="44.16567" lon="3.16115">
        <ele>731.59997558594</ele>
        <time>2013-06-25T13:14:27Z</time>
      </trkpt>
      <trkpt lat="44.16551" lon="3.1612">
        <ele>731.59997558594</ele>
        <time>2013-06-25T13:14:31Z</time>
      </trkpt>
      <trkpt lat="44.16541" lon="3.16119">
        <ele>731.59997558594</ele>
        <time>2013-06-25T13:14:33Z</time>
      </trkpt>
      <trkpt lat="44.16521" lon="3.16108">
        <ele>731.59997558594</ele>
        <time>2013-06-25T13:14:37Z</time>
      </trkpt>
      <trkpt lat="44.16499" lon="3.16096">
        <ele>731.59997558594</ele>
        <time>2013-06-25T13:14:40Z</time>
      </trkpt>
      <trkpt lat="44.16494" lon="3.16096">
        <ele>731.59997558594</ele>
        <time>2013-06-25T13:14:42Z</time>
      </trkpt>
      <trkpt lat="44.16477" lon="3.16107">
        <ele>731</ele>
        <time>2013-06-25T13:14:45Z</time>
      </trkpt>
      <trkpt lat="44.16471" lon="3.16108">
        <ele>730.59997558594</ele>
        <time>2013-06-25T13:14:46Z</time>
      </trkpt>
      <trkpt lat="44.16464" lon="3.16108">
        <ele>730.19995117188</ele>
        <time>2013-06-25T13:14:47Z</time>
      </trkpt>
      <trkpt lat="44.16458" lon="3.16108">
        <ele>729.59997558594</ele>
        <time>2013-06-25T13:14:48Z</time>
      </trkpt>
      <trkpt lat="44.16452" lon="3.16108">
        <ele>729.19995117188</ele>
        <time>2013-06-25T13:14:49Z</time>
      </trkpt>
      <trkpt lat="44.16433" lon="3.16106">
        <ele>728.80004882812</ele>
        <time>2013-06-25T13:14:52Z</time>
      </trkpt>
      <trkpt lat="44.16427" lon="3.16105">
        <ele>728.40002441406</ele>
        <time>2013-06-25T13:14:53Z</time>
      </trkpt>
      <trkpt lat="44.16421" lon="3.16102">
        <ele>728</ele>
        <time>2013-06-25T13:14:54Z</time>
      </trkpt>
      <trkpt lat="44.16415" lon="3.16099">
        <ele>727.19995117188</ele>
        <time>2013-06-25T13:14:55Z</time>
      </trkpt>
      <trkpt lat="44.16401" lon="3.1609">
        <ele>727.19995117188</ele>
        <time>2013-06-25T13:14:58Z</time>
      </trkpt>
      <trkpt lat="44.16392" lon="3.16089">
        <ele>727.19995117188</ele>
        <time>2013-06-25T13:15:00Z</time>
      </trkpt>
      <trkpt lat="44.16387" lon="3.16087">
        <ele>727.19995117188</ele>
        <time>2013-06-25T13:15:01Z</time>
      </trkpt>
      <trkpt lat="44.16373" lon="3.16083">
        <ele>727.19995117188</ele>
        <time>2013-06-25T13:15:04Z</time>
      </trkpt>
      <trkpt lat="44.16368" lon="3.1608">
        <ele>727.19995117188</ele>
        <time>2013-06-25T13:15:05Z</time>
      </trkpt>
      <trkpt lat="44.16337" lon="3.16058">
        <ele>726.59997558594</ele>
        <time>2013-06-25T13:15:10Z</time>
      </trkpt>
      <trkpt lat="44.1633" lon="3.16052">
        <ele>726</ele>
        <time>2013-06-25T13:15:11Z</time>
      </trkpt>
      <trkpt lat="44.16323" lon="3.16048">
        <ele>725.19995117188</ele>
        <time>2013-06-25T13:15:12Z</time>
      </trkpt>
      <trkpt lat="44.16317" lon="3.16044">
        <ele>724.40002441406</ele>
        <time>2013-06-25T13:15:13Z</time>
      </trkpt>
      <trkpt lat="44.1631" lon="3.1604">
        <ele>723.59997558594</ele>
        <time>2013-06-25T13:15:14Z</time>
      </trkpt>
      <trkpt lat="44.16304" lon="3.16036">
        <ele>723</ele>
        <time>2013-06-25T13:15:15Z</time>
      </trkpt>
      <trkpt lat="44.16297" lon="3.16031">
        <ele>722.19995117188</ele>
        <time>2013-06-25T13:15:16Z</time>
      </trkpt>
      <trkpt lat="44.16279" lon="3.16017">
        <ele>722.19995117188</ele>
        <time>2013-06-25T13:15:19Z</time>
      </trkpt>
      <trkpt lat="44.16268" lon="3.16012">
        <ele>722.19995117188</ele>
        <time>2013-06-25T13:15:21Z</time>
      </trkpt>
      <trkpt lat="44.16264" lon="3.16008">
        <ele>722.19995117188</ele>
        <time>2013-06-25T13:15:22Z</time>
      </trkpt>
      <trkpt lat="44.1626" lon="3.16002">
        <ele>722.19995117188</ele>
        <time>2013-06-25T13:15:23Z</time>
      </trkpt>
      <trkpt lat="44.16245" lon="3.1599">
        <ele>722.19995117188</ele>
        <time>2013-06-25T13:15:26Z</time>
      </trkpt>
      <trkpt lat="44.16234" lon="3.1598">
        <ele>722.19995117188</ele>
        <time>2013-06-25T13:15:28Z</time>
      </trkpt>
      <trkpt lat="44.16229" lon="3.15974">
        <ele>722.19995117188</ele>
        <time>2013-06-25T13:15:29Z</time>
      </trkpt>
      <trkpt lat="44.16215" lon="3.15957">
        <ele>722.19995117188</ele>
        <time>2013-06-25T13:15:32Z</time>
      </trkpt>
      <trkpt lat="44.16195" lon="3.15929">
        <ele>722.19995117188</ele>
        <time>2013-06-25T13:15:37Z</time>
      </trkpt>
      <trkpt lat="44.1619" lon="3.15925">
        <ele>722.19995117188</ele>
        <time>2013-06-25T13:15:38Z</time>
      </trkpt>
      <trkpt lat="44.16161" lon="3.15901">
        <ele>722.19995117188</ele>
        <time>2013-06-25T13:15:44Z</time>
      </trkpt>
      <trkpt lat="44.16146" lon="3.1589">
        <ele>722.59997558594</ele>
        <time>2013-06-25T13:15:47Z</time>
      </trkpt>
      <trkpt lat="44.16143" lon="3.15886">
        <ele>723</ele>
        <time>2013-06-25T13:15:48Z</time>
      </trkpt>
      <trkpt lat="44.16139" lon="3.15883">
        <ele>723.40002441406</ele>
        <time>2013-06-25T13:15:49Z</time>
      </trkpt>
      <trkpt lat="44.16136" lon="3.1588">
        <ele>723.80004882812</ele>
        <time>2013-06-25T13:15:50Z</time>
      </trkpt>
      <trkpt lat="44.16133" lon="3.15877">
        <ele>724.19995117188</ele>
        <time>2013-06-25T13:15:51Z</time>
      </trkpt>
      <trkpt lat="44.1612" lon="3.15869">
        <ele>724.19995117188</ele>
        <time>2013-06-25T13:15:54Z</time>
      </trkpt>
      <trkpt lat="44.16115" lon="3.15866">
        <ele>724.19995117188</ele>
        <time>2013-06-25T13:15:55Z</time>
      </trkpt>
      <trkpt lat="44.16095" lon="3.15843">
        <ele>724.19995117188</ele>
        <time>2013-06-25T13:16:00Z</time>
      </trkpt>
      <trkpt lat="44.16081" lon="3.15841">
        <ele>724.59997558594</ele>
        <time>2013-06-25T13:16:03Z</time>
      </trkpt>
      <trkpt lat="44.16076" lon="3.15841">
        <ele>725</ele>
        <time>2013-06-25T13:16:04Z</time>
      </trkpt>
      <trkpt lat="44.1607" lon="3.15842">
        <ele>725.40002441406</ele>
        <time>2013-06-25T13:16:05Z</time>
      </trkpt>
      <trkpt lat="44.16065" lon="3.15842">
        <ele>725.80004882812</ele>
        <time>2013-06-25T13:16:06Z</time>
      </trkpt>
      <trkpt lat="44.1606" lon="3.15844">
        <ele>726.19995117188</ele>
        <time>2013-06-25T13:16:07Z</time>
      </trkpt>
      <trkpt lat="44.16055" lon="3.15845">
        <ele>726.19995117188</ele>
        <time>2013-06-25T13:16:08Z</time>
      </trkpt>
      <trkpt lat="44.1602" lon="3.15859">
        <ele>726.19995117188</ele>
        <time>2013-06-25T13:16:15Z</time>
      </trkpt>
      <trkpt lat="44.16015" lon="3.15862">
        <ele>726.19995117188</ele>
        <time>2013-06-25T13:16:16Z</time>
      </trkpt>
      <trkpt lat="44.15994" lon="3.15873">
        <ele>726.19995117188</ele>
        <time>2013-06-25T13:16:20Z</time>
      </trkpt>
      <trkpt lat="44.15971" lon="3.15885">
        <ele>726.19995117188</ele>
        <time>2013-06-25T13:16:24Z</time>
      </trkpt>
      <trkpt lat="44.1596" lon="3.15892">
        <ele>726.19995117188</ele>
        <time>2013-06-25T13:16:26Z</time>
      </trkpt>
      <trkpt lat="44.15928" lon="3.15911">
        <ele>726.19995117188</ele>
        <time>2013-06-25T13:16:32Z</time>
      </trkpt>
      <trkpt lat="44.15923" lon="3.15914">
        <ele>725.80004882812</ele>
        <time>2013-06-25T13:16:33Z</time>
      </trkpt>
      <trkpt lat="44.15917" lon="3.15917">
        <ele>725.40002441406</ele>
        <time>2013-06-25T13:16:34Z</time>
      </trkpt>
      <trkpt lat="44.15911" lon="3.15918">
        <ele>725</ele>
        <time>2013-06-25T13:16:35Z</time>
      </trkpt>
      <trkpt lat="44.15906" lon="3.15918">
        <ele>724.59997558594</ele>
        <time>2013-06-25T13:16:36Z</time>
      </trkpt>
      <trkpt lat="44.15899" lon="3.15915">
        <ele>724.19995117188</ele>
        <time>2013-06-25T13:16:37Z</time>
      </trkpt>
      <trkpt lat="44.15884" lon="3.15899">
        <ele>723.59997558594</ele>
        <time>2013-06-25T13:16:40Z</time>
      </trkpt>
      <trkpt lat="44.15879" lon="3.15893">
        <ele>723.19995117188</ele>
        <time>2013-06-25T13:16:41Z</time>
      </trkpt>
      <trkpt lat="44.15869" lon="3.15883">
        <ele>722.40002441406</ele>
        <time>2013-06-25T13:16:42Z</time>
      </trkpt>
      <trkpt lat="44.15865" lon="3.15879">
        <ele>721.80004882812</ele>
        <time>2013-06-25T13:16:44Z</time>
      </trkpt>
      <trkpt lat="44.15854" lon="3.15871">
        <ele>721.80004882812</ele>
        <time>2013-06-25T13:16:46Z</time>
      </trkpt>
      <trkpt lat="44.1585" lon="3.15867">
        <ele>721.80004882812</ele>
        <time>2013-06-25T13:16:47Z</time>
      </trkpt>
      <trkpt lat="44.15841" lon="3.15853">
        <ele>721.80004882812</ele>
        <time>2013-06-25T13:16:50Z</time>
      </trkpt>
      <trkpt lat="44.15838" lon="3.15848">
        <ele>722.19995117188</ele>
        <time>2013-06-25T13:16:51Z</time>
      </trkpt>
      <trkpt lat="44.15835" lon="3.15842">
        <ele>722.59997558594</ele>
        <time>2013-06-25T13:16:52Z</time>
      </trkpt>
      <trkpt lat="44.15833" lon="3.15837">
        <ele>723.19995117188</ele>
        <time>2013-06-25T13:16:53Z</time>
      </trkpt>
      <trkpt lat="44.15831" lon="3.15832">
        <ele>723.59997558594</ele>
        <time>2013-06-25T13:16:54Z</time>
      </trkpt>
      <trkpt lat="44.15829" lon="3.15827">
        <ele>724</ele>
        <time>2013-06-25T13:16:55Z</time>
      </trkpt>
      <trkpt lat="44.15815" lon="3.15792">
        <ele>724</ele>
        <time>2013-06-25T13:17:02Z</time>
      </trkpt>
      <trkpt lat="44.15814" lon="3.15768">
        <ele>724.40002441406</ele>
        <time>2013-06-25T13:17:07Z</time>
      </trkpt>
      <trkpt lat="44.15817" lon="3.15758">
        <ele>725.19995117188</ele>
        <time>2013-06-25T13:17:09Z</time>
      </trkpt>
      <trkpt lat="44.15818" lon="3.15753">
        <ele>725.59997558594</ele>
        <time>2013-06-25T13:17:10Z</time>
      </trkpt>
      <trkpt lat="44.1582" lon="3.15749">
        <ele>726</ele>
        <time>2013-06-25T13:17:11Z</time>
      </trkpt>
      <trkpt lat="44.15822" lon="3.15744">
        <ele>726</ele>
        <time>2013-06-25T13:17:12Z</time>
      </trkpt>
      <trkpt lat="44.15833" lon="3.15718">
        <ele>726.40002441406</ele>
        <time>2013-06-25T13:17:18Z</time>
      </trkpt>
      <trkpt lat="44.15835" lon="3.15711">
        <ele>727.19995117188</ele>
        <time>2013-06-25T13:17:20Z</time>
      </trkpt>
      <trkpt lat="44.15839" lon="3.15704">
        <ele>728</ele>
        <time>2013-06-25T13:17:22Z</time>
      </trkpt>
      <trkpt lat="44.15842" lon="3.15697">
        <ele>728</ele>
        <time>2013-06-25T13:17:24Z</time>
      </trkpt>
      <trkpt lat="44.15845" lon="3.15683">
        <ele>728.59997558594</ele>
        <time>2013-06-25T13:17:28Z</time>
      </trkpt>
      <trkpt lat="44.15847" lon="3.15677">
        <ele>729.40002441406</ele>
        <time>2013-06-25T13:17:30Z</time>
      </trkpt>
      <trkpt lat="44.1585" lon="3.15671">
        <ele>730.19995117188</ele>
        <time>2013-06-25T13:17:32Z</time>
      </trkpt>
      <trkpt lat="44.15856" lon="3.15662">
        <ele>730.80004882812</ele>
        <time>2013-06-25T13:17:36Z</time>
      </trkpt>
      <trkpt lat="44.15858" lon="3.15657">
        <ele>731.80004882812</ele>
        <time>2013-06-25T13:17:38Z</time>
      </trkpt>
      <trkpt lat="44.1586" lon="3.15651">
        <ele>733</ele>
        <time>2013-06-25T13:17:40Z</time>
      </trkpt>
      <trkpt lat="44.15864" lon="3.15645">
        <ele>733.40002441406</ele>
        <time>2013-06-25T13:17:43Z</time>
      </trkpt>
      <trkpt lat="44.15866" lon="3.15639">
        <ele>734.19995117188</ele>
        <time>2013-06-25T13:17:45Z</time>
      </trkpt>
      <trkpt lat="44.15867" lon="3.15633">
        <ele>735</ele>
        <time>2013-06-25T13:17:47Z</time>
      </trkpt>
      <trkpt lat="44.15868" lon="3.15615">
        <ele>735.40002441406</ele>
        <time>2013-06-25T13:17:53Z</time>
      </trkpt>
      <trkpt lat="44.15868" lon="3.15608">
        <ele>736.19995117188</ele>
        <time>2013-06-25T13:17:55Z</time>
      </trkpt>
      <trkpt lat="44.15868" lon="3.156">
        <ele>737</ele>
        <time>2013-06-25T13:17:57Z</time>
      </trkpt>
      <trkpt lat="44.15867" lon="3.15593">
        <ele>737</ele>
        <time>2013-06-25T13:17:59Z</time>
      </trkpt>
      <trkpt lat="44.15865" lon="3.15564">
        <ele>737</ele>
        <time>2013-06-25T13:18:05Z</time>
      </trkpt>
      <trkpt lat="44.15864" lon="3.1555">
        <ele>737</ele>
        <time>2013-06-25T13:18:07Z</time>
      </trkpt>
      <trkpt lat="44.15862" lon="3.15533">
        <ele>737</ele>
        <time>2013-06-25T13:18:09Z</time>
      </trkpt>
      <trkpt lat="44.1586" lon="3.15524">
        <ele>736.59997558594</ele>
        <time>2013-06-25T13:18:10Z</time>
      </trkpt>
      <trkpt lat="44.15857" lon="3.15514">
        <ele>736</ele>
        <time>2013-06-25T13:18:11Z</time>
      </trkpt>
      <trkpt lat="44.15855" lon="3.15503">
        <ele>735.19995117188</ele>
        <time>2013-06-25T13:18:12Z</time>
      </trkpt>
      <trkpt lat="44.15853" lon="3.15493">
        <ele>733.59997558594</ele>
        <time>2013-06-25T13:18:13Z</time>
      </trkpt>
      <trkpt lat="44.15851" lon="3.15483">
        <ele>732.80004882812</ele>
        <time>2013-06-25T13:18:14Z</time>
      </trkpt>
      <trkpt lat="44.15848" lon="3.15474">
        <ele>732</ele>
        <time>2013-06-25T13:18:15Z</time>
      </trkpt>
      <trkpt lat="44.15838" lon="3.15449">
        <ele>732</ele>
        <time>2013-06-25T13:18:18Z</time>
      </trkpt>
      <trkpt lat="44.15831" lon="3.15435">
        <ele>731.40002441406</ele>
        <time>2013-06-25T13:18:20Z</time>
      </trkpt>
      <trkpt lat="44.15826" lon="3.15431">
        <ele>731</ele>
        <time>2013-06-25T13:18:21Z</time>
      </trkpt>
      <trkpt lat="44.15821" lon="3.15427">
        <ele>730.40002441406</ele>
        <time>2013-06-25T13:18:22Z</time>
      </trkpt>
      <trkpt lat="44.15816" lon="3.15424">
        <ele>729.80004882812</ele>
        <time>2013-06-25T13:18:23Z</time>
      </trkpt>
      <trkpt lat="44.1581" lon="3.15421">
        <ele>729.19995117188</ele>
        <time>2013-06-25T13:18:24Z</time>
      </trkpt>
      <trkpt lat="44.15804" lon="3.15418">
        <ele>728.59997558594</ele>
        <time>2013-06-25T13:18:25Z</time>
      </trkpt>
      <trkpt lat="44.15798" lon="3.15413">
        <ele>727.80004882812</ele>
        <time>2013-06-25T13:18:26Z</time>
      </trkpt>
      <trkpt lat="44.15791" lon="3.15411">
        <ele>727.19995117188</ele>
        <time>2013-06-25T13:18:27Z</time>
      </trkpt>
      <trkpt lat="44.15784" lon="3.1541">
        <ele>726.19995117188</ele>
        <time>2013-06-25T13:18:28Z</time>
      </trkpt>
      <trkpt lat="44.15775" lon="3.15408">
        <ele>725.40002441406</ele>
        <time>2013-06-25T13:18:29Z</time>
      </trkpt>
      <trkpt lat="44.15767" lon="3.15404">
        <ele>724.40002441406</ele>
        <time>2013-06-25T13:18:30Z</time>
      </trkpt>
      <trkpt lat="44.15761" lon="3.154">
        <ele>723.40002441406</ele>
        <time>2013-06-25T13:18:31Z</time>
      </trkpt>
      <trkpt lat="44.15754" lon="3.15394">
        <ele>722.40002441406</ele>
        <time>2013-06-25T13:18:32Z</time>
      </trkpt>
      <trkpt lat="44.15748" lon="3.15387">
        <ele>721.40002441406</ele>
        <time>2013-06-25T13:18:33Z</time>
      </trkpt>
      <trkpt lat="44.15743" lon="3.15378">
        <ele>720.59997558594</ele>
        <time>2013-06-25T13:18:34Z</time>
      </trkpt>
      <trkpt lat="44.15739" lon="3.15369">
        <ele>720.19995117188</ele>
        <time>2013-06-25T13:18:35Z</time>
      </trkpt>
      <trkpt lat="44.15736" lon="3.1536">
        <ele>719.80004882812</ele>
        <time>2013-06-25T13:18:36Z</time>
      </trkpt>
      <trkpt lat="44.15733" lon="3.15351">
        <ele>719.19995117188</ele>
        <time>2013-06-25T13:18:37Z</time>
      </trkpt>
      <trkpt lat="44.15731" lon="3.15342">
        <ele>718.40002441406</ele>
        <time>2013-06-25T13:18:38Z</time>
      </trkpt>
      <trkpt lat="44.1572" lon="3.15309">
        <ele>718.40002441406</ele>
        <time>2013-06-25T13:18:42Z</time>
      </trkpt>
      <trkpt lat="44.15717" lon="3.153">
        <ele>718</ele>
        <time>2013-06-25T13:18:43Z</time>
      </trkpt>
      <trkpt lat="44.15714" lon="3.15291">
        <ele>717.40002441406</ele>
        <time>2013-06-25T13:18:44Z</time>
      </trkpt>
      <trkpt lat="44.15711" lon="3.15283">
        <ele>717</ele>
        <time>2013-06-25T13:18:45Z</time>
      </trkpt>
      <trkpt lat="44.15707" lon="3.15275">
        <ele>716.59997558594</ele>
        <time>2013-06-25T13:18:46Z</time>
      </trkpt>
      <trkpt lat="44.15704" lon="3.15269">
        <ele>716</ele>
        <time>2013-06-25T13:18:47Z</time>
      </trkpt>
      <trkpt lat="44.15699" lon="3.15262">
        <ele>716</ele>
        <time>2013-06-25T13:18:48Z</time>
      </trkpt>
      <trkpt lat="44.15688" lon="3.15251">
        <ele>716</ele>
        <time>2013-06-25T13:18:50Z</time>
      </trkpt>
      <trkpt lat="44.1568" lon="3.15243">
        <ele>716</ele>
        <time>2013-06-25T13:18:52Z</time>
      </trkpt>
      <trkpt lat="44.15677" lon="3.15238">
        <ele>716</ele>
        <time>2013-06-25T13:18:53Z</time>
      </trkpt>
      <trkpt lat="44.15671" lon="3.15218">
        <ele>716</ele>
        <time>2013-06-25T13:18:56Z</time>
      </trkpt>
      <trkpt lat="44.15656" lon="3.15191">
        <ele>716</ele>
        <time>2013-06-25T13:19:01Z</time>
      </trkpt>
      <trkpt lat="44.15648" lon="3.15185">
        <ele>716</ele>
        <time>2013-06-25T13:19:03Z</time>
      </trkpt>
      <trkpt lat="44.15645" lon="3.15181">
        <ele>716.40002441406</ele>
        <time>2013-06-25T13:19:04Z</time>
      </trkpt>
      <trkpt lat="44.15643" lon="3.15177">
        <ele>716.80004882812</ele>
        <time>2013-06-25T13:19:05Z</time>
      </trkpt>
      <trkpt lat="44.15641" lon="3.15172">
        <ele>717.40002441406</ele>
        <time>2013-06-25T13:19:06Z</time>
      </trkpt>
      <trkpt lat="44.15637" lon="3.15165">
        <ele>718.19995117188</ele>
        <time>2013-06-25T13:19:08Z</time>
      </trkpt>
      <trkpt lat="44.15633" lon="3.1516">
        <ele>718.19995117188</ele>
        <time>2013-06-25T13:19:10Z</time>
      </trkpt>
      <trkpt lat="44.15629" lon="3.15157">
        <ele>719</ele>
        <time>2013-06-25T13:19:12Z</time>
      </trkpt>
      <trkpt lat="44.15624" lon="3.15153">
        <ele>720</ele>
        <time>2013-06-25T13:19:14Z</time>
      </trkpt>
      <trkpt lat="44.15605" lon="3.15139">
        <ele>720.40002441406</ele>
        <time>2013-06-25T13:19:21Z</time>
      </trkpt>
      <trkpt lat="44.15591" lon="3.15126">
        <ele>720.80004882812</ele>
        <time>2013-06-25T13:19:27Z</time>
      </trkpt>
      <trkpt lat="44.15588" lon="3.15121">
        <ele>721.59997558594</ele>
        <time>2013-06-25T13:19:29Z</time>
      </trkpt>
      <trkpt lat="44.15585" lon="3.15118">
        <ele>722.59997558594</ele>
        <time>2013-06-25T13:19:31Z</time>
      </trkpt>
      <trkpt lat="44.15581" lon="3.15115">
        <ele>723</ele>
        <time>2013-06-25T13:19:33Z</time>
      </trkpt>
      <trkpt lat="44.15577" lon="3.15112">
        <ele>723.80004882812</ele>
        <time>2013-06-25T13:19:35Z</time>
      </trkpt>
      <trkpt lat="44.15574" lon="3.15108">
        <ele>724.80004882812</ele>
        <time>2013-06-25T13:19:37Z</time>
      </trkpt>
      <trkpt lat="44.15568" lon="3.15102">
        <ele>725.19995117188</ele>
        <time>2013-06-25T13:19:41Z</time>
      </trkpt>
      <trkpt lat="44.15565" lon="3.15098">
        <ele>726</ele>
        <time>2013-06-25T13:19:43Z</time>
      </trkpt>
      <trkpt lat="44.15561" lon="3.15095">
        <ele>727</ele>
        <time>2013-06-25T13:19:45Z</time>
      </trkpt>
      <trkpt lat="44.15557" lon="3.15087">
        <ele>727.40002441406</ele>
        <time>2013-06-25T13:19:49Z</time>
      </trkpt>
      <trkpt lat="44.15555" lon="3.15081">
        <ele>729</ele>
        <time>2013-06-25T13:19:52Z</time>
      </trkpt>
      <trkpt lat="44.15551" lon="3.15071">
        <ele>729.40002441406</ele>
        <time>2013-06-25T13:19:56Z</time>
      </trkpt>
      <trkpt lat="44.15549" lon="3.15067">
        <ele>730.19995117188</ele>
        <time>2013-06-25T13:19:58Z</time>
      </trkpt>
      <trkpt lat="44.15548" lon="3.15062">
        <ele>731</ele>
        <time>2013-06-25T13:20:00Z</time>
      </trkpt>
      <trkpt lat="44.15546" lon="3.15056">
        <ele>731</ele>
        <time>2013-06-25T13:20:03Z</time>
      </trkpt>
      <trkpt lat="44.15544" lon="3.15046">
        <ele>731</ele>
        <time>2013-06-25T13:20:07Z</time>
      </trkpt>
      <trkpt lat="44.15543" lon="3.1504">
        <ele>731</ele>
        <time>2013-06-25T13:20:09Z</time>
      </trkpt>
      <trkpt lat="44.15543" lon="3.15027">
        <ele>731</ele>
        <time>2013-06-25T13:20:12Z</time>
      </trkpt>
      <trkpt lat="44.15538" lon="3.14994">
        <ele>731</ele>
        <time>2013-06-25T13:20:18Z</time>
      </trkpt>
      <trkpt lat="44.15542" lon="3.14969">
        <ele>731</ele>
        <time>2013-06-25T13:20:23Z</time>
      </trkpt>
      <trkpt lat="44.1554" lon="3.14938">
        <ele>731</ele>
        <time>2013-06-25T13:20:30Z</time>
      </trkpt>
      <trkpt lat="44.1554" lon="3.14923">
        <ele>731.59997558594</ele>
        <time>2013-06-25T13:20:34Z</time>
      </trkpt>
      <trkpt lat="44.15539" lon="3.14916">
        <ele>732.40002441406</ele>
        <time>2013-06-25T13:20:36Z</time>
      </trkpt>
      <trkpt lat="44.15539" lon="3.1491">
        <ele>733.19995117188</ele>
        <time>2013-06-25T13:20:38Z</time>
      </trkpt>
      <trkpt lat="44.15537" lon="3.14895">
        <ele>733.59997558594</ele>
        <time>2013-06-25T13:20:42Z</time>
      </trkpt>
      <trkpt lat="44.15536" lon="3.14888">
        <ele>734.59997558594</ele>
        <time>2013-06-25T13:20:44Z</time>
      </trkpt>
      <trkpt lat="44.15536" lon="3.14882">
        <ele>735.40002441406</ele>
        <time>2013-06-25T13:20:46Z</time>
      </trkpt>
      <trkpt lat="44.15536" lon="3.14875">
        <ele>735.40002441406</ele>
        <time>2013-06-25T13:20:49Z</time>
      </trkpt>
      <trkpt lat="44.15537" lon="3.14874">
        <ele>735.40002441406</ele>
        <time>2013-06-25T13:20:53Z</time>
      </trkpt>
    </trkseg>
  </trk>
</gpx>